Time;durP1;ratioP1;P1;durP2;ratioP2;P2;SDS_P1;SDS_P2;PMS_P1;PMS_P2;Temp;Humidity;BMP_temperature;BMP_pressure;BME280_temperature;BME280_humidity;BME280_pressure;Samples;Min_cycle;Max_cycle;Signal;HPM_P1;HPM_P2
2023/04/29 00:00:26;;;;;;;10.57;6.53;;;23.70;39.70;;;;;;7615128;22;80645;-54
2023/04/29 00:03:29;;;;;;;13.48;6.93;;;23.70;39.70;;;;;;7615186;22;80151;-55
2023/04/29 00:06:29;;;;;;;8.93;6.10;;;23.70;39.70;;;;;;7640904;22;80145;-55
2023/04/29 00:09:30;;;;;;;13.20;6.97;;;23.70;39.90;;;;;;7642422;22;80765;-53
2023/04/29 00:12:32;;;;;;;9.70;6.60;;;23.70;39.80;;;;;;7641432;22;80235;-50
2023/04/29 00:15:32;;;;;;;10.82;6.82;;;23.60;39.70;;;;;;7642912;22;80274;-50
2023/04/29 00:18:33;;;;;;;9.43;6.30;;;23.70;39.70;;;;;;7614905;22;80983;-52
2023/04/29 00:21:33;;;;;;;9.15;6.55;;;23.70;39.70;;;;;;7641346;22;80270;-54
2023/04/29 00:24:34;;;;;;;13.35;6.68;;;23.70;39.70;;;;;;7642536;22;80354;-53
2023/04/29 00:27:35;;;;;;;11.25;7.10;;;23.70;39.70;;;;;;7615102;22;83180;-58
2023/04/29 00:30:36;;;;;;;10.10;6.05;;;23.70;39.70;;;;;;7614483;22;83596;-53
2023/04/29 00:33:37;;;;;;;10.93;6.75;;;23.60;39.60;;;;;;7613960;22;80444;-55
2023/04/29 00:36:37;;;;;;;10.50;6.80;;;23.60;39.50;;;;;;7614530;22;84397;-55
2023/04/29 00:39:38;;;;;;;14.00;6.82;;;23.60;39.50;;;;;;7641709;22;81372;-52
2023/04/29 00:42:38;;;;;;;9.10;6.40;;;23.60;39.60;;;;;;7614014;22;82241;-54
2023/04/29 00:45:39;;;;;;;12.18;6.45;;;23.60;39.60;;;;;;7641819;22;80682;-56
2023/04/29 00:48:40;;;;;;;13.93;6.65;;;23.60;39.50;;;;;;7640791;22;80730;-56
2023/04/29 00:51:40;;;;;;;10.98;6.95;;;23.60;39.60;;;;;;7642476;22;80694;-58
2023/04/29 00:54:41;;;;;;;13.10;7.03;;;23.60;39.70;;;;;;7642357;22;80528;-55
2023/04/29 00:57:42;;;;;;;11.13;6.40;;;23.60;39.70;;;;;;7642572;22;80718;-54
2023/04/29 01:00:43;;;;;;;11.35;6.78;;;23.60;39.70;;;;;;7642723;22;80355;-54
2023/04/29 01:03:43;;;;;;;9.93;6.43;;;23.60;39.70;;;;;;7616918;22;81992;-56
2023/04/29 01:06:45;;;;;;;10.57;6.82;;;23.60;39.60;;;;;;7616418;22;83747;-57
2023/04/29 01:09:45;;;;;;;9.60;6.18;;;23.60;39.60;;;;;;7612150;22;81514;-54
2023/04/29 01:12:46;;;;;;;10.70;6.95;;;23.60;39.60;;;;;;7616851;22;82957;-54
2023/04/29 01:15:47;;;;;;;10.73;6.53;;;23.60;39.70;;;;;;7616425;22;81925;-55
2023/04/29 01:18:47;;;;;;;10.32;6.60;;;23.60;39.60;;;;;;7616413;22;83302;-53
2023/04/29 01:21:51;;;;;;;12.13;7.20;;;23.60;39.70;;;;;;7616076;22;83069;-56
2023/04/29 01:24:51;;;;;;;10.15;6.60;;;23.60;39.70;;;;;;7643343;22;80457;-54
2023/04/29 01:27:52;;;;;;;10.10;6.85;;;23.60;39.60;;;;;;7640951;22;80324;-56
2023/04/29 01:30:53;;;;;;;11.25;6.95;;;23.50;39.70;;;;;;7616257;22;82965;-54
2023/04/29 01:33:53;;;;;;;10.75;6.60;;;23.60;39.80;;;;;;7612142;22;83236;-54
2023/04/29 01:36:56;;;;;;;10.00;6.80;;;23.60;39.60;;;;;;7615350;22;81755;-56
2023/04/29 01:39:56;;;;;;;10.98;6.70;;;23.60;39.60;;;;;;7613953;22;80476;-55
2023/04/29 01:42:58;;;;;;;10.43;6.50;;;23.60;39.70;;;;;;7615545;22;81555;-54
2023/04/29 01:45:59;;;;;;;9.15;6.35;;;23.60;39.60;;;;;;7615594;22;83565;-56
2023/04/29 01:49:00;;;;;;;9.95;6.70;;;23.60;39.80;;;;;;7615186;22;83070;-57
2023/04/29 01:52:01;;;;;;;8.60;5.95;;;23.60;39.70;;;;;;7615689;22;83205;-55
2023/04/29 01:55:02;;;;;;;10.85;6.57;;;23.60;39.70;;;;;;7614848;22;83785;-54
2023/04/29 01:58:12;;;;;;;10.52;6.50;;;23.50;39.80;;;;;;7615529;22;80446;-55
2023/04/29 02:01:30;;;;;;;12.00;6.47;;;23.60;39.90;;;;;;7615832;22;83412;-55
2023/04/29 02:04:33;;;;;;;12.30;7.25;;;23.50;40.00;;;;;;7615584;22;82502;-54
2023/04/29 02:07:33;;;;;;;9.88;6.75;;;23.50;40.00;;;;;;7642386;22;80878;-53
2023/04/29 02:10:34;;;;;;;11.43;6.97;;;23.50;39.80;;;;;;7614957;22;80371;-52
2023/04/29 02:13:46;;;;;;;10.98;6.70;;;23.50;39.90;;;;;;7614833;22;80839;-52
2023/04/29 02:16:47;;;;;;;12.13;7.88;;;23.50;39.90;;;;;;7615619;22;82605;-53
2023/04/29 02:19:48;;;;;;;11.75;7.07;;;23.50;39.90;;;;;;7590664;22;80566;-53
2023/04/29 02:22:49;;;;;;;15.60;7.07;;;23.50;39.90;;;;;;7614984;22;83007;-54
2023/04/29 02:25:49;;;;;;;11.00;7.00;;;23.50;39.90;;;;;;7641979;22;80048;-51
2023/04/29 02:28:51;;;;;;;11.60;7.15;;;23.50;39.90;;;;;;7615258;22;81738;-58
2023/04/29 02:31:52;;;;;;;15.23;7.63;;;23.50;39.90;;;;;;7643081;22;80606;-58
2023/04/29 02:34:52;;;;;;;11.32;7.68;;;23.50;39.90;;;;;;7616338;22;82936;-57
2023/04/29 02:37:53;;;;;;;9.77;6.85;;;23.50;39.90;;;;;;7641773;22;80303;-59
2023/04/29 02:40:54;;;;;;;10.07;6.88;;;23.50;39.90;;;;;;7641513;22;80358;-56
2023/04/29 02:43:55;;;;;;;12.63;7.28;;;23.50;40.10;;;;;;7641270;22;80360;-58
2023/04/29 02:46:56;;;;;;;11.27;7.45;;;23.50;40.10;;;;;;7615864;22;83354;-58
2023/04/29 02:49:57;;;;;;;11.60;7.60;;;23.50;40.10;;;;;;7613930;22;81605;-58
2023/04/29 02:52:58;;;;;;;12.05;7.50;;;23.50;40.10;;;;;;7612531;22;80648;-56
2023/04/29 02:55:58;;;;;;;13.32;7.57;;;23.50;40.10;;;;;;7608626;22;80410;-56
2023/04/29 02:58:59;;;;;;;12.45;7.75;;;23.50;40.10;;;;;;7614803;22;83625;-58
2023/04/29 03:02:00;;;;;;;13.38;7.35;;;23.50;40.10;;;;;;7615046;22;83554;-58
2023/04/29 03:05:01;;;;;;;11.20;7.38;;;23.50;40.20;;;;;;7614349;22;82357;-59
2023/04/29 03:08:03;;;;;;;10.90;6.90;;;23.50;40.10;;;;;;7588350;22;83162;-56
2023/04/29 03:11:04;;;;;;;12.40;6.97;;;23.50;40.10;;;;;;7616171;22;82882;-55
2023/04/29 03:14:05;;;;;;;9.95;6.90;;;23.50;40.10;;;;;;7614711;22;83245;-54
2023/04/29 03:17:05;;;;;;;10.40;6.70;;;23.50;40.20;;;;;;7615256;22;83253;-53
2023/04/29 03:20:06;;;;;;;13.27;7.50;;;23.50;40.10;;;;;;7615126;22;81381;-53
2023/04/29 03:23:07;;;;;;;10.48;7.35;;;23.50;40.10;;;;;;7615308;22;84113;-57
2023/04/29 03:26:07;;;;;;;9.63;6.78;;;23.50;40.30;;;;;;7616699;22;82203;-57
2023/04/29 03:29:08;;;;;;;11.38;7.35;;;23.50;40.30;;;;;;7614689;22;81277;-59
2023/04/29 03:32:09;;;;;;;11.57;7.57;;;23.50;40.20;;;;;;7615488;22;83483;-59
2023/04/29 03:35:10;;;;;;;10.23;7.15;;;23.60;40.20;;;;;;7615080;22;83501;-58
2023/04/29 03:38:16;;;;;;;12.23;7.05;;;23.60;40.10;;;;;;7614685;22;87484;-59
2023/04/29 03:41:18;;;;;;;13.75;7.70;;;23.70;40.20;;;;;;7614897;22;83249;-60
2023/04/29 03:44:18;;;;;;;12.50;7.65;;;23.70;40.20;;;;;;7615581;22;82954;-60
2023/04/29 03:47:19;;;;;;;12.25;7.07;;;23.70;40.20;;;;;;7612714;22;83630;-59
2023/04/29 03:50:20;;;;;;;13.73;7.57;;;23.70;40.20;;;;;;7614367;22;83378;-59
2023/04/29 03:53:21;;;;;;;12.55;7.95;;;23.70;40.20;;;;;;7614908;22;81363;-59
2023/04/29 03:56:22;;;;;;;11.90;7.40;;;23.70;40.20;;;;;;7615680;22;83843;-59
2023/04/29 03:59:23;;;;;;;10.50;7.15;;;23.70;40.20;;;;;;7614838;22;82855;-59
2023/04/29 04:02:24;;;;;;;10.30;6.90;;;23.70;40.20;;;;;;7612897;22;82884;-59
2023/04/29 04:05:25;;;;;;;8.65;6.57;;;23.80;40.30;;;;;;7615143;22;81250;-60
2023/04/29 04:08:35;;;;;;;10.82;6.93;;;23.80;40.50;;;;;;7615515;22;82007;-57
2023/04/29 04:11:46;;;;;;;11.40;7.28;;;23.80;41.40;;;;;;7613822;22;82011;-57
2023/04/29 04:14:47;;;;;;;10.95;6.88;;;23.80;40.90;;;;;;7613006;22;83441;-59
2023/04/29 04:17:47;;;;;;;10.25;6.65;;;23.80;41.00;;;;;;7614011;22;81604;-58
2023/04/29 04:20:48;;;;;;;13.63;7.70;;;23.80;41.10;;;;;;7615718;22;82263;-58
2023/04/29 04:23:50;;;;;;;12.25;7.07;;;23.80;41.40;;;;;;7614554;22;83432;-57
2023/04/29 04:26:55;;;;;;;;;;;23.90;41.80;;;;;;7610098;22;83419;-58
2023/04/29 04:30:00;;;;;;;13.05;7.13;;;23.80;42.00;;;;;;7618382;22;83876;-57
2023/04/29 04:33:05;;;;;;;9.38;6.70;;;23.90;42.20;;;;;;7602022;22;80627;-57
2023/04/29 04:36:06;;;;;;;13.80;7.13;;;23.90;43.00;;;;;;7596261;22;83063;-55
2023/04/29 04:39:07;;;;;;;12.57;6.93;;;23.90;42.80;;;;;;7623355;22;81413;-58
2023/04/29 04:42:08;;;;;;;13.88;6.93;;;23.80;42.90;;;;;;7584040;22;81251;-61
2023/04/29 04:48:17;;;;;;;13.98;7.85;;;23.90;43.10;;;;;;7637004;22;80527;-60
2023/04/29 04:51:23;;;;;;;14.93;7.55;;;23.80;42.80;;;;;;7612277;22;83137;-60
2023/04/29 04:54:24;;;;;;;12.25;7.25;;;23.80;42.90;;;;;;7611414;22;82911;-60
2023/04/29 04:57:33;;;;;;;11.38;7.10;;;23.80;42.80;;;;;;7610865;22;82941;-59
2023/04/29 05:00:34;;;;;;;8.80;5.90;;;23.80;42.90;;;;;;7607709;22;81580;-61
2023/04/29 05:03:35;;;;;;;9.38;6.50;;;23.80;42.40;;;;;;7609922;22;82000;-60
2023/04/29 05:06:36;;;;;;;11.70;6.22;;;23.80;42.60;;;;;;7612903;22;83156;-62
2023/04/29 05:09:37;;;;;;;10.18;6.38;;;23.80;42.70;;;;;;7610868;22;82121;-61
2023/04/29 05:12:37;;;;;;;10.73;6.72;;;23.80;42.60;;;;;;7612680;22;83126;-60
2023/04/29 05:15:38;;;;;;;13.27;7.50;;;23.70;42.70;;;;;;7613832;22;82330;-60
2023/04/29 05:18:39;;;;;;;11.52;6.65;;;23.70;42.60;;;;;;7613326;22;82375;-60
2023/04/29 05:21:40;;;;;;;13.18;7.28;;;23.80;42.40;;;;;;7612787;22;82963;-61
2023/04/29 05:24:43;;;;;;;13.45;7.47;;;23.80;42.30;;;;;;7613079;22;83177;-60
2023/04/29 05:27:43;;;;;;;13.07;8.15;;;23.80;42.40;;;;;;7610594;22;82907;-59
2023/04/29 05:30:48;;;;;;;15.63;9.02;;;23.80;42.80;;;;;;7588333;22;82707;-59
2023/04/29 05:33:49;;;;;;;12.85;8.35;;;23.80;42.80;;;;;;7637811;22;81174;-59
2023/04/29 05:36:50;;;;;;;17.27;8.35;;;23.70;43.40;;;;;;7612578;22;81600;-59
2023/04/29 05:39:50;;;;;;;15.07;8.80;;;23.70;43.50;;;;;;7638006;22;80259;-60
2023/04/29 05:42:52;;;;;;;13.30;8.40;;;23.70;43.50;;;;;;7613161;22;82702;-60
2023/04/29 05:45:52;;;;;;;20.63;8.63;;;23.80;43.40;;;;;;7613577;22;81334;-61
2023/04/29 05:48:53;;;;;;;29.33;9.60;;;23.70;43.80;;;;;;7642777;22;80390;-60
2023/04/29 05:51:53;;;;;;;19.75;8.93;;;23.70;44.20;;;;;;7616326;22;83110;-60
2023/04/29 05:54:54;;;;;;;26.42;8.43;;;23.70;44.20;;;;;;7615687;22;83571;-60
2023/04/29 05:57:54;;;;;;;18.42;7.90;;;23.80;44.40;;;;;;7611936;22;82695;-59
2023/04/29 06:00:55;;;;;;;13.88;8.07;;;23.80;44.00;;;;;;7615288;22;82892;-60
2023/04/29 06:03:59;;;;;;;14.48;7.93;;;23.80;44.00;;;;;;7612888;22;83438;-60
2023/04/29 06:07:18;;;;;;;10.68;7.30;;;23.80;43.70;;;;;;7642845;22;80386;-60
2023/04/29 06:10:24;;;;;;;12.85;7.78;;;23.80;43.70;;;;;;7643563;22;81621;-53
2023/04/29 06:13:25;;;;;;;16.48;8.68;;;23.70;43.70;;;;;;7612944;22;83064;-59
2023/04/29 06:16:26;;;;;;;13.98;8.65;;;23.80;43.60;;;;;;7640687;22;81360;-59
2023/04/29 06:19:27;;;;;;;17.33;8.48;;;23.70;43.50;;;;;;7614090;22;82637;-59
2023/04/29 06:22:28;;;;;;;13.18;8.18;;;23.80;43.50;;;;;;7642522;22;80735;-59
2023/04/29 06:25:33;;;;;;;13.13;7.82;;;23.70;43.60;;;;;;7614946;22;83167;-60
2023/04/29 06:28:36;;;;;;;14.20;8.50;;;23.70;43.80;;;;;;7642222;22;80812;-60
2023/04/29 06:31:37;;;;;;;15.13;9.05;;;23.70;44.10;;;;;;7591285;22;83126;-59
2023/04/29 06:34:38;;;;;;;12.52;8.23;;;23.80;44.00;;;;;;7607509;22;82602;-59
2023/04/29 06:38:07;;;;;;;;;;;23.70;43.80;;;;;;7590977;22;80577;-63
2023/04/29 06:41:26;;;;;;;15.70;8.40;;;23.70;43.90;;;;;;7647861;22;84396;-63
2023/04/29 06:44:26;;;;;;;15.85;7.70;;;23.80;43.90;;;;;;7639447;22;79982;-62
2023/04/29 06:47:47;;;;;;;13.93;8.20;;;23.70;44.20;;;;;;7639409;22;81709;-62
2023/04/29 06:50:58;;;;;;;13.18;7.90;;;23.80;43.90;;;;;;7613137;22;82651;-59
2023/04/29 06:54:00;;;;;;;18.25;8.43;;;23.80;44.00;;;;;;7611870;22;82117;-59
2023/04/29 06:57:01;;;;;;;16.08;8.80;;;23.80;45.20;;;;;;7637985;22;81223;-59
2023/04/29 07:00:02;;;;;;;18.90;7.20;;;23.80;44.80;;;;;;7638398;22;80465;-59
2023/04/29 07:03:05;;;;;;;20.40;8.05;;;23.80;45.20;;;;;;7620483;22;81382;-59
2023/04/29 07:06:05;;;;;;;21.02;8.00;;;23.80;46.00;;;;;;7637241;22;80843;-61
2023/04/29 07:09:06;;;;;;;10.23;6.75;;;23.70;46.40;;;;;;7607710;22;81758;-61
2023/04/29 07:12:07;;;;;;;14.45;6.55;;;23.70;46.60;;;;;;7583703;22;81834;-60
2023/04/29 07:15:08;;;;;;;15.00;6.88;;;23.70;46.70;;;;;;7608706;22;81632;-58
2023/04/29 07:18:08;;;;;;;12.23;6.32;;;23.80;47.10;;;;;;7636740;22;80155;-60
2023/04/29 07:21:09;;;;;;;18.33;6.70;;;23.80;47.30;;;;;;7637437;22;80507;-59
2023/04/29 07:24:09;;;;;;;12.65;6.78;;;23.80;47.30;;;;;;7633988;22;81136;-59
2023/04/29 07:27:10;;;;;;;9.05;6.15;;;23.80;47.50;;;;;;7609160;22;83097;-59
2023/04/29 07:30:11;;;;;;;10.98;5.47;;;23.90;47.40;;;;;;7581859;22;83305;-58
2023/04/29 07:33:11;;;;;;;12.55;6.18;;;23.90;47.50;;;;;;7634046;22;80246;-58
2023/04/29 07:36:14;;;;;;;10.90;6.80;;;24.00;47.40;;;;;;7638836;22;80069;-57
2023/04/29 07:39:15;;;;;;;8.20;5.40;;;24.00;47.30;;;;;;7612489;22;82152;-57
2023/04/29 07:42:18;;;;;;;14.98;6.30;;;24.00;46.60;;;;;;7611201;22;83365;-58
2023/04/29 07:45:19;;;;;;;8.35;5.32;;;24.10;46.40;;;;;;7613408;22;83235;-58
2023/04/29 07:48:20;;;;;;;20.23;4.90;;;24.20;46.20;;;;;;7587555;22;83176;-58
2023/04/29 07:51:21;;;;;;;12.68;5.60;;;24.20;46.10;;;;;;7612413;22;83204;-57
2023/04/29 07:54:22;;;;;;;8.02;5.50;;;24.20;45.90;;;;;;7639524;22;80967;-60
2023/04/29 07:57:23;;;;;;;8.88;4.75;;;24.20;45.90;;;;;;7636360;22;82052;-58
2023/04/29 08:00:23;;;;;;;8.82;4.50;;;24.10;44.40;;;;;;7611423;22;82995;-58
2023/04/29 08:03:24;;;;;;;9.20;4.28;;;23.50;42.50;;;;;;7612466;22;80312;-57
2023/04/29 08:06:25;;;;;;;8.93;3.83;;;23.00;43.70;;;;;;7612386;22;81692;-59
2023/04/29 08:09:25;;;;;;;8.40;4.00;;;22.80;44.10;;;;;;7633220;22;80265;-58
2023/04/29 08:12:26;;;;;;;8.10;4.10;;;22.90;43.90;;;;;;7633139;22;81061;-58
2023/04/29 08:15:26;;;;;;;5.75;3.33;;;22.80;44.30;;;;;;7608847;22;83632;-57
2023/04/29 08:18:27;;;;;;;9.15;4.00;;;22.90;44.70;;;;;;7610262;22;83443;-58
2023/04/29 08:21:28;;;;;;;6.93;4.20;;;22.90;43.90;;;;;;7633651;22;80424;-60
2023/04/29 08:24:29;;;;;;;4.90;3.53;;;22.80;43.90;;;;;;7634132;22;80287;-65
2023/04/29 08:27:30;;;;;;;7.55;4.53;;;22.80;43.90;;;;;;7635062;22;80890;-66
2023/04/29 08:30:30;;;;;;;5.90;3.88;;;22.70;43.80;;;;;;7638335;22;80904;-65
2023/04/29 08:33:31;;;;;;;9.90;4.00;;;22.80;43.80;;;;;;7612075;22;81593;-66
2023/04/29 08:36:31;;;;;;;8.70;4.07;;;22.80;43.80;;;;;;7638394;22;80482;-67
2023/04/29 08:39:32;;;;;;;10.77;4.18;;;22.70;43.70;;;;;;7637945;22;81631;-67
2023/04/29 08:42:32;;;;;;;5.97;3.60;;;22.80;43.80;;;;;;7638303;22;80534;-66
2023/04/29 08:45:33;;;;;;;9.23;4.00;;;22.80;43.80;;;;;;7638942;22;80859;-66
2023/04/29 08:48:35;;;;;;;8.73;4.55;;;22.80;43.70;;;;;;7638527;22;81194;-67
2023/04/29 08:51:35;;;;;;;7.15;4.60;;;22.90;43.80;;;;;;7638121;22;80318;-66
2023/04/29 08:54:36;;;;;;;6.78;4.70;;;22.80;43.70;;;;;;7639345;22;80484;-66
2023/04/29 08:57:39;;;;;;;6.75;4.22;;;22.80;43.50;;;;;;7639565;22;80422;-68
2023/04/29 09:00:40;;;;;;;6.72;4.40;;;22.80;43.40;;;;;;7640830;22;80124;-67
2023/04/29 09:03:40;;;;;;;5.43;3.78;;;22.80;43.40;;;;;;7639721;22;80377;-68
2023/04/29 09:06:41;;;;;;;12.82;4.20;;;22.80;43.30;;;;;;7612955;22;83310;-67
2023/04/29 09:09:41;;;;;;;8.55;4.20;;;22.80;43.10;;;;;;7612556;22;82351;-67
2023/04/29 09:12:42;;;;;;;8.27;4.00;;;22.80;43.20;;;;;;7641193;22;80687;-67
2023/04/29 09:15:42;;;;;;;9.15;4.00;;;22.80;43.30;;;;;;7641307;22;80441;-69
2023/04/29 09:18:43;;;;;;;5.70;3.50;;;22.80;43.30;;;;;;7629968;22;80982;-69
2023/04/29 09:21:43;;;;;;;6.03;3.63;;;22.80;43.30;;;;;;7640374;22;80075;-70
2023/04/29 09:24:44;;;;;;;9.80;4.32;;;22.90;43.20;;;;;;7640642;22;80396;-71
2023/04/29 09:27:45;;;;;;;6.43;3.83;;;23.00;43.20;;;;;;7639335;22;80853;-70
2023/04/29 09:30:46;;;;;;;7.88;4.15;;;23.10;43.20;;;;;;7641396;22;80741;-71
2023/04/29 09:33:46;;;;;;;6.35;3.38;;;23.10;43.10;;;;;;7640998;22;80724;-62
2023/04/29 09:36:47;;;;;;;7.82;3.92;;;23.10;43.10;;;;;;7640113;22;80818;-63
2023/04/29 09:39:47;;;;;;;7.35;4.30;;;23.20;43.10;;;;;;7640810;22;80536;-61
2023/04/29 09:42:48;;;;;;;6.75;3.97;;;23.20;43.00;;;;;;7639438;22;80682;-62
2023/04/29 09:45:49;;;;;;;8.70;4.00;;;23.30;43.00;;;;;;7641193;22;80268;-60
2023/04/29 09:48:49;;;;;;;8.45;4.20;;;23.30;42.90;;;;;;7641412;22;80994;-62
2023/04/29 09:51:50;;;;;;;9.60;5.20;;;23.40;42.90;;;;;;7640772;22;80428;-63
2023/04/29 09:54:50;;;;;;;8.43;3.83;;;23.50;42.80;;;;;;7640860;22;80450;-59
2023/04/29 09:57:51;;;;;;;11.32;4.47;;;23.50;42.90;;;;;;7640236;22;80841;-63
2023/04/29 10:00:52;;;;;;;7.07;4.15;;;23.50;42.70;;;;;;7639516;22;81097;-64
2023/04/29 10:03:52;;;;;;;9.27;4.38;;;23.50;42.70;;;;;;7641865;22;80304;-63
2023/04/29 10:06:53;;;;;;;8.07;3.80;;;23.50;42.70;;;;;;7642064;22;80399;-65
2023/04/29 10:09:53;;;;;;;7.65;3.85;;;23.50;42.70;;;;;;7638509;22;80696;-66
2023/04/29 10:12:54;;;;;;;6.63;3.88;;;23.50;42.80;;;;;;7634553;22;80230;-68
2023/04/29 10:15:55;;;;;;;7.75;4.28;;;23.50;42.70;;;;;;7642482;22;81364;-67
2023/04/29 10:18:55;;;;;;;5.75;3.85;;;23.60;42.80;;;;;;7640404;22;80821;-65
2023/04/29 10:21:56;;;;;;;7.03;3.58;;;23.60;42.80;;;;;;7642513;22;80331;-66
2023/04/29 10:24:56;;;;;;;7.53;3.63;;;23.60;42.70;;;;;;7640833;22;80638;-68
2023/04/29 10:27:57;;;;;;;6.40;3.47;;;23.60;42.60;;;;;;7634457;22;80310;-68
2023/04/29 10:30:57;;;;;;;7.25;3.88;;;23.60;42.60;;;;;;7640220;22;80472;-64
2023/04/29 10:33:59;;;;;;;6.78;3.72;;;23.70;42.50;;;;;;7640167;22;80662;-68
2023/04/29 10:37:00;;;;;;;8.00;4.00;;;23.70;42.60;;;;;;7642510;22;80084;-66
2023/04/29 10:40:01;;;;;;;5.38;3.67;;;23.70;42.50;;;;;;7638332;22;81471;-64
2023/04/29 10:43:01;;;;;;;5.22;3.53;;;23.70;42.60;;;;;;7643621;22;82069;-65
2023/04/29 10:46:02;;;;;;;5.40;4.07;;;23.70;42.40;;;;;;7642929;22;80134;-66
2023/04/29 10:49:02;;;;;;;7.10;3.92;;;23.70;42.40;;;;;;7642983;22;80649;-61
2023/04/29 10:52:03;;;;;;;7.22;3.97;;;23.70;42.50;;;;;;7643572;22;80143;-61
2023/04/29 10:55:03;;;;;;;9.40;3.80;;;23.80;42.60;;;;;;7638559;22;80729;-62
2023/04/29 10:58:04;;;;;;;6.10;4.03;;;23.70;42.50;;;;;;7641442;22;80806;-61
2023/04/29 11:01:06;;;;;;;5.60;3.75;;;23.70;42.40;;;;;;7641211;22;80324;-62
2023/04/29 11:04:08;;;;;;;5.07;3.67;;;23.80;42.40;;;;;;7641648;22;80734;-61
2023/04/29 11:07:08;;;;;;;8.13;3.88;;;23.80;42.50;;;;;;7638370;22;80290;-67
2023/04/29 11:10:09;;;;;;;5.43;3.92;;;23.80;42.40;;;;;;7636923;22;81350;-67
2023/04/29 11:13:09;;;;;;;7.40;3.42;;;23.80;42.40;;;;;;7613329;22;81315;-68
2023/04/29 11:16:10;;;;;;;6.18;3.60;;;23.80;42.50;;;;;;7640247;22;81710;-66
2023/04/29 11:19:11;;;;;;;6.15;3.42;;;23.80;42.50;;;;;;7640359;22;80244;-66
2023/04/29 11:22:11;;;;;;;4.97;3.47;;;23.80;42.40;;;;;;7640585;22;80186;-64
2023/04/29 11:25:12;;;;;;;6.78;3.90;;;23.80;42.40;;;;;;7636092;22;85363;-63
2023/04/29 11:28:12;;;;;;;5.63;3.80;;;23.70;42.40;;;;;;7639708;22;80335;-64
2023/04/29 11:31:13;;;;;;;8.68;3.50;;;23.70;42.50;;;;;;7641832;22;81041;-64
2023/04/29 11:34:14;;;;;;;7.55;4.07;;;23.70;42.40;;;;;;7639828;22;80788;-68
2023/04/29 11:37:14;;;;;;;7.53;3.55;;;23.70;42.50;;;;;;7642617;22;79917;-67
2023/04/29 11:40:15;;;;;;;5.22;3.30;;;23.70;42.60;;;;;;7638894;22;81812;-69
2023/04/29 11:43:16;;;;;;;5.35;3.38;;;23.70;42.80;;;;;;7643031;22;80951;-72
2023/04/29 11:46:17;;;;;;;9.77;3.90;;;23.70;42.70;;;;;;7643484;22;80304;-67
2023/04/29 11:49:18;;;;;;;4.90;3.60;;;23.70;42.80;;;;;;7643445;22;80573;-73
2023/04/29 11:52:18;;;;;;;6.40;3.88;;;23.70;42.80;;;;;;7639607;22;80475;-67
2023/04/29 11:55:19;;;;;;;6.55;3.72;;;23.70;42.70;;;;;;7616194;22;80283;-67
2023/04/29 11:58:19;;;;;;;7.20;3.55;;;23.70;42.90;;;;;;7643262;22;80844;-66
2023/04/29 12:01:20;;;;;;;4.60;3.58;;;23.70;42.90;;;;;;7643157;22;80366;-69
2023/04/29 12:04:21;;;;;;;8.07;3.95;;;23.70;43.00;;;;;;7640928;22;80721;-67
2023/04/29 12:07:21;;;;;;;6.22;3.75;;;23.70;43.00;;;;;;7638983;22;80281;-71
2023/04/29 12:10:22;;;;;;;6.82;3.78;;;23.70;43.10;;;;;;7617024;22;87389;-76
2023/04/29 12:13:23;;;;;;;8.23;4.07;;;23.70;43.10;;;;;;7642232;22;81030;-66
2023/04/29 12:16:24;;;;;;;6.47;4.15;;;23.60;43.20;;;;;;7643233;22;80812;-70
2023/04/29 12:19:25;;;;;;;6.93;3.75;;;23.40;43.10;;;;;;7643693;22;80975;-75
2023/04/29 12:22:25;;;;;;;9.43;4.20;;;23.40;43.10;;;;;;7639826;22;80502;-71
2023/04/29 12:25:26;;;;;;;12.43;4.35;;;23.40;43.00;;;;;;7641828;22;80771;-68
2023/04/29 12:28:27;;;;;;;7.60;4.28;;;23.40;43.10;;;;;;7641372;22;80650;-67
2023/04/29 12:31:28;;;;;;;5.70;4.05;;;23.40;43.10;;;;;;7637130;22;80542;-68
2023/04/29 12:34:29;;;;;;;7.05;4.00;;;23.40;43.00;;;;;;7642391;22;81496;-68
2023/04/29 12:37:29;;;;;;;5.32;3.70;;;23.40;43.10;;;;;;7637518;22;81566;-62
2023/04/29 12:40:30;;;;;;;7.65;4.15;;;23.40;43.10;;;;;;7640662;22;80487;-67
2023/04/29 12:43:31;;;;;;;6.68;4.35;;;23.40;43.20;;;;;;7638968;22;80753;-68
2023/04/29 12:46:31;;;;;;;8.13;4.47;;;23.40;43.10;;;;;;7640011;22;81097;-70
2023/04/29 12:49:32;;;;;;;7.57;4.32;;;23.40;43.10;;;;;;7639899;22;80185;-75
2023/04/29 12:52:32;;;;;;;6.20;4.00;;;23.40;43.10;;;;;;7638077;22;80805;-74
2023/04/29 12:55:33;;;;;;;6.55;4.35;;;23.40;43.10;;;;;;7645322;22;80339;-73
2023/04/29 12:58:34;;;;;;;8.40;4.03;;;23.40;43.30;;;;;;7643322;22;80819;-67
2023/04/29 13:01:35;;;;;;;8.90;4.10;;;23.40;43.30;;;;;;7643039;22;81150;-68
2023/04/29 13:04:35;;;;;;;6.50;4.10;;;23.40;43.30;;;;;;7637961;22;80273;-68
2023/04/29 13:07:36;;;;;;;6.50;3.97;;;23.40;43.30;;;;;;7642274;22;80805;-68
2023/04/29 13:10:37;;;;;;;6.53;4.20;;;23.40;43.30;;;;;;7641162;22;80462;-67
2023/04/29 13:13:38;;;;;;;6.63;3.95;;;23.40;43.30;;;;;;7642014;22;80281;-67
2023/04/29 13:16:38;;;;;;;5.85;4.10;;;23.40;43.30;;;;;;7644121;22;80462;-64
2023/04/29 13:19:39;;;;;;;6.22;4.00;;;23.30;43.20;;;;;;7643253;22;81716;-64
2023/04/29 13:22:40;;;;;;;6.95;4.55;;;23.30;43.20;;;;;;7638151;22;80110;-66
2023/04/29 13:25:41;;;;;;;9.30;3.72;;;23.30;43.30;;;;;;7645822;22;80761;-66
2023/04/29 13:28:42;;;;;;;5.28;3.80;;;23.40;43.20;;;;;;7646647;22;80166;-66
2023/04/29 13:31:43;;;;;;;7.95;4.65;;;23.40;43.30;;;;;;7645890;22;79935;-64
2023/04/29 13:34:43;;;;;;;7.03;4.05;;;23.40;43.40;;;;;;7643270;22;80313;-69
2023/04/29 13:37:44;;;;;;;7.18;4.07;;;23.30;43.40;;;;;;7640077;22;81184;-68
2023/04/29 13:40:45;;;;;;;6.68;4.22;;;23.40;43.50;;;;;;7642662;22;80604;-70
2023/04/29 13:43:45;;;;;;;8.05;4.45;;;23.40;43.50;;;;;;7642778;22;80332;-66
2023/04/29 13:46:46;;;;;;;6.60;4.25;;;23.40;43.60;;;;;;7646853;22;80377;-67
2023/04/29 13:49:47;;;;;;;7.80;4.40;;;23.30;43.50;;;;;;7643006;22;80707;-66
2023/04/29 13:52:47;;;;;;;7.15;4.13;;;23.20;43.60;;;;;;7646316;22;80334;-63
2023/04/29 13:55:48;;;;;;;6.90;4.20;;;23.20;43.70;;;;;;7644024;22;80410;-63
2023/04/29 13:58:49;;;;;;;6.78;4.50;;;23.20;43.70;;;;;;7643301;22;80347;-62
2023/04/29 14:01:49;;;;;;;8.00;4.55;;;23.10;43.70;;;;;;7643481;22;80431;-62
2023/04/29 14:04:50;;;;;;;6.72;4.10;;;23.10;43.80;;;;;;7639868;22;80739;-61
2023/04/29 14:07:51;;;;;;;7.03;3.97;;;23.00;43.80;;;;;;7639164;22;80418;-62
2023/04/29 14:10:52;;;;;;;6.57;4.68;;;23.00;43.90;;;;;;7639268;22;80295;-73
2023/04/29 14:13:52;;;;;;;6.40;4.18;;;23.00;44.00;;;;;;7644421;22;80467;-73
2023/04/29 14:16:53;;;;;;;6.70;4.10;;;23.00;44.10;;;;;;7643729;22;80205;-70
2023/04/29 14:19:53;;;;;;;9.13;5.30;;;22.90;44.20;;;;;;7634267;22;81009;-72
2023/04/29 14:22:54;;;;;;;7.15;4.82;;;22.80;44.40;;;;;;7617134;22;80351;-72
2023/04/29 14:25:54;;;;;;;7.03;4.78;;;22.80;44.50;;;;;;7643300;22;80337;-69
2023/04/29 14:28:58;;;;;;;10.98;5.53;;;22.80;44.60;;;;;;7642611;22;81215;-68
2023/04/29 14:31:58;;;;;;;7.75;5.40;;;22.80;44.80;;;;;;7641079;22;80298;-71
2023/04/29 14:34:59;;;;;;;10.93;6.47;;;22.90;45.70;;;;;;7637494;22;80379;-72
2023/04/29 14:38:00;;;;;;;11.70;6.90;;;22.80;45.40;;;;;;7638647;22;80121;-67
2023/04/29 14:41:00;;;;;;;10.63;6.32;;;22.80;45.60;;;;;;7641183;22;80261;-65
2023/04/29 14:44:01;;;;;;;9.35;6.22;;;22.70;45.90;;;;;;7643489;22;80788;-66
2023/04/29 14:47:02;;;;;;;10.95;6.63;;;22.70;46.20;;;;;;7638799;22;81448;-61
2023/04/29 14:50:03;;;;;;;12.27;7.50;;;22.80;46.60;;;;;;7642328;22;81405;-69
2023/04/29 14:53:03;;;;;;;8.25;6.35;;;22.80;46.60;;;;;;7643535;22;80989;-67
2023/04/29 14:56:04;;;;;;;10.38;6.22;;;22.80;46.70;;;;;;7643607;22;80641;-67
2023/04/29 14:59:07;;;;;;;16.80;6.43;;;22.80;46.90;;;;;;7643635;22;79909;-65
2023/04/29 15:02:08;;;;;;;14.27;6.80;;;22.80;47.00;;;;;;7640478;22;81438;-63
2023/04/29 15:05:08;;;;;;;13.05;6.43;;;22.80;47.00;;;;;;7643428;22;80864;-70
2023/04/29 15:08:09;;;;;;;10.65;6.53;;;22.90;47.10;;;;;;7642639;22;80407;-67
2023/04/29 15:11:09;;;;;;;12.40;7.05;;;22.90;47.10;;;;;;7643102;22;80313;-66
2023/04/29 15:14:10;;;;;;;13.85;7.53;;;22.90;47.10;;;;;;7643495;22;80853;-72
2023/04/29 15:17:10;;;;;;;18.08;8.63;;;22.90;47.20;;;;;;7638865;22;80914;-71
2023/04/29 15:20:11;;;;;;;16.40;8.07;;;22.90;47.10;;;;;;7643557;22;80361;-67
2023/04/29 15:23:11;;;;;;;14.20;7.97;;;22.90;47.10;;;;;;7643477;22;81602;-68
2023/04/29 15:26:12;;;;;;;10.63;7.22;;;23.00;47.00;;;;;;7642922;22;88249;-68
2023/04/29 15:29:12;;;;;;;15.77;7.43;;;23.00;46.90;;;;;;7641812;22;83729;-70
2023/04/29 15:32:13;;;;;;;14.75;7.05;;;23.10;46.80;;;;;;7639767;22;80713;-71
2023/04/29 15:35:13;;;;;;;14.25;7.72;;;23.10;46.60;;;;;;7643494;22;79902;-71
2023/04/29 15:38:14;;;;;;;10.88;6.88;;;23.10;46.60;;;;;;7642402;22;80545;-72
2023/04/29 15:41:15;;;;;;;16.05;8.18;;;23.10;46.60;;;;;;7642387;22;80873;-70